Time;durP1;ratioP1;P1;durP2;ratioP2;P2;SDS_P1;SDS_P2;PMS_P1;PMS_P2;Temp;Humidity;BMP_temperature;BMP_pressure;BME280_temperature;BME280_humidity;BME280_pressure;Samples;Min_cycle;Max_cycle;Signal;HPM_P1;HPM_P2
2023/11/21 00:01:09;;;;;;;;;;;;;;;;;;4182100;28;20303;-62
2023/11/21 00:03:14;;;;;;;;;;;;;;;;;;4181947;28;20369;-62
2023/11/21 00:05:16;;;;;;;;;;;;;;;;;;4182350;28;19927;-62
2023/11/21 00:07:18;;;;;;;;;;;;;;;;;;4182252;28;19929;-62
2023/11/21 00:09:19;;;;;;;;;;;;;;;;;;4172364;28;19971;-62
2023/11/21 00:11:21;;;;;;;;;;;;;;;;;;4165771;28;20341;-62
2023/11/21 00:13:22;;;;;;;;;;;;;;;;;;4165270;28;19920;-62
2023/11/21 00:15:24;;;;;;;;;;;;;;;;;;4165481;28;19928;-62
2023/11/21 00:17:25;;;;;;;;;;;;;;;;;;4147983;28;19921;-61
2023/11/21 00:19:27;;;;;;;;;;;;;;;;;;4165487;28;20373;-63
2023/11/21 00:21:28;;;;;;;;;;;;;;;;;;4147752;28;19947;-62
2023/11/21 00:23:30;;;;;;;;;;;;;;;;;;4165285;28;19921;-62
2023/11/21 00:25:31;;;;;;;;;;;;;;;;;;4165362;28;19925;-62
2023/11/21 00:27:33;;;;;;;;;;;;;;;;;;4165535;28;19920;-62
2023/11/21 00:29:34;;;;;;;;;;;;;;;;;;4165286;28;19920;-62
2023/11/21 00:31:36;;;;;;;;;;;;;;;;;;4165250;28;19956;-63
2023/11/21 00:33:38;;;;;;;;;;;;;;;;;;4156661;28;19931;-62
2023/11/21 00:35:39;;;;;;;;;;;;;;;;;;4158522;28;19921;-62
2023/11/21 00:37:41;;;;;;;;;;;;;;;;;;4165423;28;19921;-62
2023/11/21 00:39:43;;;;;;;;;;;;;;;;;;4165284;28;19968;-62
2023/11/21 00:41:45;;;;;;;;;;;;;;;;;;4165332;28;19921;-62
2023/11/21 00:43:46;;;;;;;;;;;;;;;;;;4165319;28;20015;-61
2023/11/21 00:45:49;;;;;;;;;;;;;;;;;;4152460;28;19929;-62
2023/11/21 00:47:50;;;;;;;;;;;;;;;;;;4177010;28;19920;-62
2023/11/21 00:49:52;;;;;;;;;;;;;;;;;;4181622;28;19924;-62
2023/11/21 00:51:54;;;;;;;;;;;;;;;;;;4181762;28;19921;-62
2023/11/21 00:53:56;;;;;;;;;;;;;;;;;;4181362;28;19994;-62
2023/11/21 00:55:57;;;;;;;;;;;;;;;;;;4181562;28;20360;-62
2023/11/21 00:57:59;;;;;;;;;;;;;;;;;;4181408;28;20319;-62
2023/11/21 01:00:01;;;;;;;;;;;;;;;;;;4181240;28;20398;-62
2023/11/21 01:02:04;;;;;;;;;;;;;;;;;;4181024;28;19920;-62
2023/11/21 01:04:09;;;;;;;;;;;;;;;;;;4181017;28;19948;-62
2023/11/21 01:06:11;;;;;;;;;;;;;;;;;;4166805;28;19947;-62
2023/11/21 01:08:14;;;;;;;;;;;;;;;;;;4165493;28;19944;-62
2023/11/21 01:10:17;;;;;;;;;;;;;;;;;;4164899;28;20365;-62
2023/11/21 01:12:18;;;;;;;;;;;;;;;;;;4164735;28;19925;-61
2023/11/21 01:14:20;;;;;;;;;;;;;;;;;;4164608;28;19921;-62
2023/11/21 01:16:22;;;;;;;;;;;;;;;;;;4164178;28;19944;-62
2023/11/21 01:18:25;;;;;;;;;;;;;;;;;;4164570;28;19964;-62
2023/11/21 01:20:27;;;;;;;;;;;;;;;;;;4164314;28;19974;-62
2023/11/21 01:22:28;;;;;;;;;;;;;;;;;;4164525;28;19961;-62
2023/11/21 01:27:18;;;;;;;;;;;;;;;;;;4164578;28;20532;-62
2023/11/21 01:29:19;;;;;;;;;;;;;;;;;;4160540;28;19928;-62
2023/11/21 01:31:21;;;;;;;;;;;;;;;;;;4153387;28;19921;-63
2023/11/21 01:33:24;;;;;;;;;;;;;;;;;;4164293;28;19975;-61
2023/11/21 01:35:26;;;;;;;;;;;;;;;;;;4146993;28;19949;-62
2023/11/21 01:37:28;;;;;;;;;;;;;;;;;;4164699;28;19947;-62
2023/11/21 01:39:29;;;;;;;;;;;;;;;;;;4164441;28;19920;-62
2023/11/21 01:41:31;;;;;;;;;;;;;;;;;;4164353;28;19960;-62
2023/11/21 01:43:33;;;;;;;;;;;;;;;;;;4164476;28;19927;-62
2023/11/21 01:45:35;;;;;;;;;;;;;;;;;;4164556;28;19921;-62
2023/11/21 01:47:37;;;;;;;;;;;;;;;;;;4176710;28;20011;-62
2023/11/21 01:49:38;;;;;;;;;;;;;;;;;;4180937;28;19924;-63
2023/11/21 01:51:40;;;;;;;;;;;;;;;;;;4181123;28;19920;-62
2023/11/21 01:53:41;;;;;;;;;;;;;;;;;;4181282;28;19927;-62
2023/11/21 01:55:43;;;;;;;;;;;;;;;;;;4181074;28;20015;-63
2023/11/21 01:57:45;;;;;;;;;;;;;;;;;;4179554;28;19928;-63
2023/11/21 01:59:47;;;;;;;;;;;;;;;;;;4180982;28;19967;-62
2023/11/21 02:01:50;;;;;;;;;;;;;;;;;;4171460;28;20392;-63
2023/11/21 02:03:51;;;;;;;;;;;;;;;;;;4164049;28;20004;-63
2023/11/21 02:05:53;;;;;;;;;;;;;;;;;;4163873;28;19956;-62
2023/11/21 02:07:56;;;;;;;;;;;;;;;;;;4164702;28;19925;-62
2023/11/21 02:09:58;;;;;;;;;;;;;;;;;;4180904;28;19920;-62
2023/11/21 02:11:59;;;;;;;;;;;;;;;;;;4180927;28;19924;-62
2023/11/21 02:14:01;;;;;;;;;;;;;;;;;;4180750;28;19925;-62
2023/11/21 02:16:02;;;;;;;;;;;;;;;;;;4180525;28;20391;-62
2023/11/21 02:18:05;;;;;;;;;;;;;;;;;;4181013;28;19931;-62
2023/11/21 02:20:12;;;;;;;;;;;;;;;;;;4163295;28;19955;-62
2023/11/21 02:22:13;;;;;;;;;;;;;;;;;;4180466;28;20241;-62
2023/11/21 02:24:17;;;;;;;;;;;;;;;;;;4180879;28;19931;-62
2023/11/21 02:26:20;;;;;;;;;;;;;;;;;;4142639;28;20007;-62
2023/11/21 02:28:25;;;;;;;;;;;;;;;;;;4159500;28;20008;-62
2023/11/21 02:30:36;;;;;;;;;;;;;;;;;;4167401;28;20379;-62
2023/11/21 02:32:39;;;;;;;;;;;;;;;;;;4167086;28;20295;-62
2023/11/21 02:34:49;;;;;;;;;;;;;;;;;;4167022;28;20028;-62
2023/11/21 02:36:51;;;;;;;;;;;;;;;;;;4167273;28;19921;-62
2023/11/21 02:38:52;;;;;;;;;;;;;;;;;;4167288;28;19924;-62
2023/11/21 02:40:54;;;;;;;;;;;;;;;;;;4167021;28;20336;-62
2023/11/21 02:42:58;;;;;;;;;;;;;;;;;;4166963;28;20008;-62
2023/11/21 02:45:00;;;;;;;;;;;;;;;;;;4167169;28;19921;-63
2023/11/21 02:47:02;;;;;;;;;;;;;;;;;;4174743;28;19971;-63
2023/11/21 02:49:05;;;;;;;;;;;;;;;;;;4183635;28;19920;-62
2023/11/21 02:51:07;;;;;;;;;;;;;;;;;;4183142;28;19927;-62
2023/11/21 02:53:10;;;;;;;;;;;;;;;;;;4183564;28;19924;-63
2023/11/21 02:55:12;;;;;;;;;;;;;;;;;;4183149;28;19970;-62
2023/11/21 02:57:13;;;;;;;;;;;;;;;;;;4181208;28;19956;-63
2023/11/21 02:59:15;;;;;;;;;;;;;;;;;;4166947;28;19967;-62
2023/11/21 03:01:17;;;;;;;;;;;;;;;;;;4167391;28;19974;-61
2023/11/21 03:03:18;;;;;;;;;;;;;;;;;;4166752;28;20379;-62
2023/11/21 03:05:21;;;;;;;;;;;;;;;;;;4166916;28;19925;-62
2023/11/21 03:07:22;;;;;;;;;;;;;;;;;;4166787;28;19921;-62
2023/11/21 03:09:24;;;;;;;;;;;;;;;;;;4179746;28;19935;-62
2023/11/21 03:11:25;;;;;;;;;;;;;;;;;;4183246;28;19927;-62
2023/11/21 03:13:28;;;;;;;;;;;;;;;;;;4165213;28;20396;-62
2023/11/21 03:15:29;;;;;;;;;;;;;;;;;;4183240;28;19994;-63
2023/11/21 03:17:31;;;;;;;;;;;;;;;;;;4183192;28;19924;-62
2023/11/21 03:19:34;;;;;;;;;;;;;;;;;;4183192;28;19931;-62
2023/11/21 03:21:36;;;;;;;;;;;;;;;;;;4178477;28;19932;-62
2023/11/21 03:23:38;;;;;;;;;;;;;;;;;;4153474;28;19931;-62
2023/11/21 03:25:39;;;;;;;;;;;;;;;;;;4166310;28;19924;-62
2023/11/21 03:27:41;;;;;;;;;;;;;;;;;;4166393;28;20387;-62
2023/11/21 03:29:43;;;;;;;;;;;;;;;;;;4166482;28;20420;-63
2023/11/21 03:31:45;;;;;;;;;;;;;;;;;;4166176;28;20296;-63
2023/11/21 03:33:47;;;;;;;;;;;;;;;;;;4166303;28;20395;-62
2023/11/21 03:35:49;;;;;;;;;;;;;;;;;;4166384;28;19932;-62
2023/11/21 03:37:50;;;;;;;;;;;;;;;;;;4148400;28;20345;-62
2023/11/21 03:39:52;;;;;;;;;;;;;;;;;;4165814;28;20377;-62
2023/11/21 03:41:54;;;;;;;;;;;;;;;;;;4166209;28;20304;-62
2023/11/21 03:43:55;;;;;;;;;;;;;;;;;;4166221;28;19967;-63
2023/11/21 03:45:57;;;;;;;;;;;;;;;;;;4166218;28;20011;-61
2023/11/21 03:47:59;;;;;;;;;;;;;;;;;;4181540;28;19947;-62
2023/11/21 03:50:00;;;;;;;;;;;;;;;;;;4182564;28;19960;-63
2023/11/21 03:52:02;;;;;;;;;;;;;;;;;;4182635;28;19921;-62
2023/11/21 03:54:04;;;;;;;;;;;;;;;;;;4175251;28;20380;-63
2023/11/21 03:56:05;;;;;;;;;;;;;;;;;;4165980;28;19925;-62
2023/11/21 03:58:07;;;;;;;;;;;;;;;;;;4165856;28;19948;-62
2023/11/21 04:00:10;;;;;;;;;;;;;;;;;;4166259;28;19933;-62
2023/11/21 04:02:11;;;;;;;;;;;;;;;;;;4180656;28;19967;-62
2023/11/21 04:04:13;;;;;;;;;;;;;;;;;;4181950;28;19947;-63
2023/11/21 04:06:14;;;;;;;;;;;;;;;;;;4182435;28;19925;-63
2023/11/21 04:08:16;;;;;;;;;;;;;;;;;;4181812;28;19970;-62
2023/11/21 04:10:18;;;;;;;;;;;;;;;;;;4182496;28;19925;-62
2023/11/21 04:12:19;;;;;;;;;;;;;;;;;;4182103;28;19928;-62
2023/11/21 04:14:21;;;;;;;;;;;;;;;;;;4182256;28;20340;-62
2023/11/21 04:16:22;;;;;;;;;;;;;;;;;;4182132;28;20007;-62
2023/11/21 04:18:24;;;;;;;;;;;;;;;;;;4168513;28;20429;-62
2023/11/21 04:20:28;;;;;;;;;;;;;;;;;;4157046;28;19928;-62
2023/11/21 04:22:30;;;;;;;;;;;;;;;;;;4165410;28;19928;-62
2023/11/21 04:24:31;;;;;;;;;;;;;;;;;;4165492;28;19952;-63
2023/11/21 04:26:33;;;;;;;;;;;;;;;;;;4165832;28;19921;-62
2023/11/21 04:28:34;;;;;;;;;;;;;;;;;;4165640;28;19971;-62
2023/11/21 04:30:36;;;;;;;;;;;;;;;;;;4165396;28;20325;-62
2023/11/21 04:32:38;;;;;;;;;;;;;;;;;;4165445;28;19920;-62
2023/11/21 04:34:40;;;;;;;;;;;;;;;;;;4165267;28;19925;-63
2023/11/21 04:36:42;;;;;;;;;;;;;;;;;;4165375;28;20406;-63
2023/11/21 04:38:43;;;;;;;;;;;;;;;;;;4165168;28;19947;-62
2023/11/21 04:40:45;;;;;;;;;;;;;;;;;;4165216;28;20253;-62
2023/11/21 04:42:47;;;;;;;;;;;;;;;;;;4165286;28;19921;-63
2023/11/21 04:44:48;;;;;;;;;;;;;;;;;;4165320;28;19948;-63
2023/11/21 04:46:50;;;;;;;;;;;;;;;;;;4171176;28;19932;-62
2023/11/21 04:48:51;;;;;;;;;;;;;;;;;;4181736;28;19920;-62
2023/11/21 04:50:53;;;;;;;;;;;;;;;;;;4169182;28;20377;-63
2023/11/21 04:52:54;;;;;;;;;;;;;;;;;;4164688;28;19925;-63
2023/11/21 04:54:58;;;;;;;;;;;;;;;;;;4164780;28;19956;-62
2023/11/21 04:57:00;;;;;;;;;;;;;;;;;;4164939;28;19928;-62
2023/11/21 04:59:02;;;;;;;;;;;;;;;;;;4165092;28;19924;-62
2023/11/21 05:01:03;;;;;;;;;;;;;;;;;;4146929;28;19925;-62
2023/11/21 05:03:08;;;;;;;;;;;;;;;;;;4164630;28;19925;-62
2023/11/21 05:05:10;;;;;;;;;;;;;;;;;;4164991;28;19928;-63
2023/11/21 05:07:12;;;;;;;;;;;;;;;;;;4164800;28;19921;-62
2023/11/21 05:09:13;;;;;;;;;;;;;;;;;;4176210;28;19921;-62
2023/11/21 05:11:15;;;;;;;;;;;;;;;;;;4163630;28;19921;-62
2023/11/21 05:13:17;;;;;;;;;;;;;;;;;;4181452;28;19921;-62
2023/11/21 05:15:18;;;;;;;;;;;;;;;;;;4157227;28;20261;-62
2023/11/21 05:17:20;;;;;;;;;;;;;;;;;;4160741;28;19929;-62
2023/11/21 05:19:22;;;;;;;;;;;;;;;;;;4153909;28;19921;-62
2023/11/21 05:21:24;;;;;;;;;;;;;;;;;;4157834;28;19956;-63
2023/11/21 05:23:26;;;;;;;;;;;;;;;;;;4161918;28;19967;-62
2023/11/21 05:25:27;;;;;;;;;;;;;;;;;;4165118;28;19927;-62
2023/11/21 05:27:29;;;;;;;;;;;;;;;;;;4147292;28;19931;-62
2023/11/21 05:29:31;;;;;;;;;;;;;;;;;;4164519;28;19925;-62
2023/11/21 05:31:32;;;;;;;;;;;;;;;;;;4164332;28;19996;-62
2023/11/21 05:33:34;;;;;;;;;;;;;;;;;;4164687;28;19928;-62
2023/11/21 05:35:35;;;;;;;;;;;;;;;;;;4164731;28;20177;-62
2023/11/21 05:37:38;;;;;;;;;;;;;;;;;;4164749;28;19971;-62
2023/11/21 05:39:40;;;;;;;;;;;;;;;;;;4146788;28;19929;-63
2023/11/21 05:41:41;;;;;;;;;;;;;;;;;;4164474;28;19928;-62
2023/11/21 05:43:43;;;;;;;;;;;;;;;;;;4164319;28;19994;-63
2023/11/21 05:45:45;;;;;;;;;;;;;;;;;;4164256;28;19943;-62
2023/11/21 05:47:46;;;;;;;;;;;;;;;;;;4164673;28;19948;-63
2023/11/21 05:49:50;;;;;;;;;;;;;;;;;;4164531;28;19921;-62
2023/11/21 05:51:53;;;;;;;;;;;;;;;;;;4147061;28;19921;-62
2023/11/21 05:53:55;;;;;;;;;;;;;;;;;;4164598;28;20296;-62
2023/11/21 05:55:56;;;;;;;;;;;;;;;;;;4164607;28;19948;-63
2023/11/21 05:57:58;;;;;;;;;;;;;;;;;;4164555;28;19921;-62
2023/11/21 05:59:59;;;;;;;;;;;;;;;;;;4164486;28;20423;-62
2023/11/21 06:02:02;;;;;;;;;;;;;;;;;;4177617;28;20387;-62
2023/11/21 06:04:03;;;;;;;;;;;;;;;;;;4172863;28;19921;-62
2023/11/21 06:06:06;;;;;;;;;;;;;;;;;;4167745;28;19921;-62
2023/11/21 06:08:08;;;;;;;;;;;;;;;;;;4169527;28;19925;-62
2023/11/21 06:10:11;;;;;;;;;;;;;;;;;;4182524;28;20418;-62
2023/11/21 06:12:12;;;;;;;;;;;;;;;;;;4153033;28;19921;-62
2023/11/21 06:14:17;;;;;;;;;;;;;;;;;;4167433;28;20338;-62
2023/11/21 06:16:19;;;;;;;;;;;;;;;;;;4167378;28;19921;-62
2023/11/21 06:18:21;;;;;;;;;;;;;;;;;;4167503;28;19964;-62
2023/11/21 06:20:28;;;;;;;;;;;;;;;;;;4149677;28;20375;-62
2023/11/21 06:22:30;;;;;;;;;;;;;;;;;;4166508;28;19929;-62
2023/11/21 06:24:32;;;;;;;;;;;;;;;;;;4160403;28;19967;-63
2023/11/21 06:26:34;;;;;;;;;;;;;;;;;;4151034;28;20293;-62
2023/11/21 06:28:38;;;;;;;;;;;;;;;;;;4151021;28;19925;-62
2023/11/21 06:30:44;;;;;;;;;;;;;;;;;;4150897;28;20020;-63
2023/11/21 06:32:45;;;;;;;;;;;;;;;;;;4151273;28;20336;-64
2023/11/21 06:34:47;;;;;;;;;;;;;;;;;;4145245;28;19928;-63
2023/11/21 06:36:49;;;;;;;;;;;;;;;;;;4135131;28;20401;-63
2023/11/21 06:38:50;;;;;;;;;;;;;;;;;;4150712;28;20028;-63
2023/11/21 06:40:52;;;;;;;;;;;;;;;;;;4150676;28;19921;-64
2023/11/21 06:42:53;;;;;;;;;;;;;;;;;;4158362;28;19921;-63
2023/11/21 06:44:58;;;;;;;;;;;;;;;;;;4165785;28;19974;-63
2023/11/21 06:47:00;;;;;;;;;;;;;;;;;;4166856;28;19948;-63
2023/11/21 06:49:01;;;;;;;;;;;;;;;;;;4167179;28;20019;-63
2023/11/21 06:51:03;;;;;;;;;;;;;;;;;;4166539;28;19932;-64
2023/11/21 06:53:06;;;;;;;;;;;;;;;;;;4166840;28;19947;-63
2023/11/21 06:55:08;;;;;;;;;;;;;;;;;;4166863;28;19929;-62
2023/11/21 06:57:10;;;;;;;;;;;;;;;;;;4166915;28;19951;-62
2023/11/21 06:59:12;;;;;;;;;;;;;;;;;;4167034;28;19925;-63
2023/11/21 07:01:13;;;;;;;;;;;;;;;;;;4173744;28;19939;-63
2023/11/21 07:03:15;;;;;;;;;;;;;;;;;;4182747;28;19921;-63
2023/11/21 07:05:20;;;;;;;;;;;;;;;;;;4183440;28;20456;-63
2023/11/21 07:07:22;;;;;;;;;;;;;;;;;;4166110;28;19921;-63
2023/11/21 07:09:25;;;;;;;;;;;;;;;;;;4165987;28;20371;-63
2023/11/21 07:11:27;;;;;;;;;;;;;;;;;;4166688;28;19978;-63
2023/11/21 07:13:28;;;;;;;;;;;;;;;;;;4166616;28;20296;-64
2023/11/21 07:15:30;;;;;;;;;;;;;;;;;;4165866;28;19925;-63
2023/11/21 07:17:31;;;;;;;;;;;;;;;;;;4166876;28;20313;-63
2023/11/21 07:19:34;;;;;;;;;;;;;;;;;;4166609;28;20003;-64
2023/11/21 07:21:35;;;;;;;;;;;;;;;;;;4148724;28;19922;-65
2023/11/21 07:23:37;;;;;;;;;;;;;;;;;;4166164;28;19931;-66
2023/11/21 07:25:38;;;;;;;;;;;;;;;;;;4166412;28;19987;-65
2023/11/21 07:27:40;;;;;;;;;;;;;;;;;;4166405;28;19928;-65
2023/11/21 07:29:41;;;;;;;;;;;;;;;;;;4166402;28;20016;-65
2023/11/21 07:31:43;;;;;;;;;;;;;;;;;;4166463;28;20372;-65
2023/11/21 07:33:47;;;;;;;;;;;;;;;;;;4166339;28;19921;-65
2023/11/21 07:35:48;;;;;;;;;;;;;;;;;;4166101;28;19968;-65
2023/11/21 07:37:50;;;;;;;;;;;;;;;;;;4166139;28;20288;-66
2023/11/21 07:39:56;;;;;;;;;;;;;;;;;;4165896;28;19979;-65
2023/11/21 07:41:57;;;;;;;;;;;;;;;;;;4166509;28;20425;-65
2023/11/21 07:43:59;;;;;;;;;;;;;;;;;;4166128;28;19920;-65
2023/11/21 07:46:02;;;;;;;;;;;;;;;;;;4165972;28;19975;-65
2023/11/21 07:48:04;;;;;;;;;;;;;;;;;;4166258;28;19932;-66
2023/11/21 07:50:07;;;;;;;;;;;;;;;;;;4166131;28;20008;-65
2023/11/21 07:52:09;;;;;;;;;;;;;;;;;;4166098;28;20287;-65
2023/11/21 07:54:10;;;;;;;;;;;;;;;;;;4165911;28;20373;-66
2023/11/21 07:56:12;;;;;;;;;;;;;;;;;;4166006;28;20455;-65
2023/11/21 07:58:14;;;;;;;;;;;;;;;;;;4165801;28;20373;-65
2023/11/21 08:00:16;;;;;;;;;;;;;;;;;;4165435;28;19928;-65
2023/11/21 08:02:17;;;;;;;;;;;;;;;;;;4166086;28;19967;-65
2023/11/21 08:04:19;;;;;;;;;;;;;;;;;;4150788;28;19922;-65
2023/11/21 08:06:20;;;;;;;;;;;;;;;;;;4164359;28;20345;-66
2023/11/21 08:08:22;;;;;;;;;;;;;;;;;;4169703;28;20365;-65
2023/11/21 08:10:24;;;;;;;;;;;;;;;;;;4182237;28;19920;-66
2023/11/21 08:12:27;;;;;;;;;;;;;;;;;;4181961;28;20315;-66
2023/11/21 08:14:29;;;;;;;;;;;;;;;;;;4182191;28;19970;-66
2023/11/21 08:16:30;;;;;;;;;;;;;;;;;;4181813;28;19990;-66
2023/11/21 08:18:32;;;;;;;;;;;;;;;;;;4182128;28;19931;-65
2023/11/21 08:20:38;;;;;;;;;;;;;;;;;;4181803;28;20000;-66
2023/11/21 08:22:40;;;;;;;;;;;;;;;;;;4182047;28;20284;-65
2023/11/21 08:24:42;;;;;;;;;;;;;;;;;;4181684;28;19925;-65
2023/11/21 08:26:43;;;;;;;;;;;;;;;;;;4180906;28;19925;-66
2023/11/21 08:28:45;;;;;;;;;;;;;;;;;;4181811;28;20004;-66
2023/11/21 08:30:46;;;;;;;;;;;;;;;;;;4181914;28;19928;-66
2023/11/21 08:32:48;;;;;;;;;;;;;;;;;;4181781;28;19975;-66
2023/11/21 08:34:50;;;;;;;;;;;;;;;;;;4178537;28;20376;-66
2023/11/21 08:36:53;;;;;;;;;;;;;;;;;;4165434;28;19921;-66
2023/11/21 08:38:55;;;;;;;;;;;;;;;;;;4165062;28;19967;-65
2023/11/21 08:40:56;;;;;;;;;;;;;;;;;;4165293;28;20296;-65
2023/11/21 08:43:04;;;;;;;;;;;;;;;;;;4165583;28;19921;-65
2023/11/21 08:45:08;;;;;;;;;;;;;;;;;;4165116;28;20285;-65
2023/11/21 08:47:10;;;;;;;;;;;;;;;;;;4165090;28;19921;-65
2023/11/21 08:49:11;;;;;;;;;;;;;;;;;;4165201;28;19951;-66
2023/11/21 08:51:13;;;;;;;;;;;;;;;;;;4164877;28;19927;-65
2023/11/21 08:53:16;;;;;;;;;;;;;;;;;;4165334;28;19964;-65
2023/11/21 08:55:19;;;;;;;;;;;;;;;;;;4165444;28;19931;-66
2023/11/21 08:57:21;;;;;;;;;;;;;;;;;;4164935;28;19921;-66
2023/11/21 08:59:23;;;;;;;;;;;;;;;;;;4160330;28;19991;-66
2023/11/21 09:01:25;;;;;;;;;;;;;;;;;;4160358;28;19921;-65
2023/11/21 09:03:28;;;;;;;;;;;;;;;;;;4164549;28;19929;-66
2023/11/21 09:05:30;;;;;;;;;;;;;;;;;;4164977;28;19991;-66
2023/11/21 09:07:31;;;;;;;;;;;;;;;;;;4164964;28;19924;-65
2023/11/21 09:09:33;;;;;;;;;;;;;;;;;;4178458;28;20380;-66
2023/11/21 09:11:35;;;;;;;;;;;;;;;;;;4181312;28;19924;-66
2023/11/21 09:13:37;;;;;;;;;;;;;;;;;;4181314;28;20331;-65
2023/11/21 09:15:39;;;;;;;;;;;;;;;;;;4181285;28;20220;-66
2023/11/21 09:17:42;;;;;;;;;;;;;;;;;;4180942;28;20292;-66
2023/11/21 09:19:47;;;;;;;;;;;;;;;;;;4181264;28;19960;-65
2023/11/21 09:21:49;;;;;;;;;;;;;;;;;;4163258;28;20015;-66
2023/11/21 09:23:50;;;;;;;;;;;;;;;;;;4181207;28;19987;-66
2023/11/21 09:25:54;;;;;;;;;;;;;;;;;;4180858;28;19921;-66
2023/11/21 09:27:57;;;;;;;;;;;;;;;;;;4181263;28;19928;-66
2023/11/21 09:29:59;;;;;;;;;;;;;;;;;;4181216;28;19921;-65
2023/11/21 09:32:01;;;;;;;;;;;;;;;;;;4170297;28;20015;-66
2023/11/21 09:34:02;;;;;;;;;;;;;;;;;;4164678;28;19925;-65
2023/11/21 09:36:04;;;;;;;;;;;;;;;;;;4164355;28;19921;-65
2023/11/21 09:38:10;;;;;;;;;;;;;;;;;;4164012;28;20331;-66
2023/11/21 09:40:13;;;;;;;;;;;;;;;;;;4164413;28;19929;-66
2023/11/21 09:42:16;;;;;;;;;;;;;;;;;;4164513;28;19921;-66
2023/11/21 09:44:17;;;;;;;;;;;;;;;;;;4164543;28;20011;-66
2023/11/21 09:46:21;;;;;;;;;;;;;;;;;;4164657;28;19929;-66
2023/11/21 09:48:22;;;;;;;;;;;;;;;;;;4164440;28;19932;-66
2023/11/21 09:50:24;;;;;;;;;;;;;;;;;;4164620;28;19971;-66
2023/11/21 09:52:25;;;;;;;;;;;;;;;;;;4164624;28;20314;-65
2023/11/21 09:54:29;;;;;;;;;;;;;;;;;;4164557;28;20011;-65
2023/11/21 09:56:30;;;;;;;;;;;;;;;;;;4152622;28;19953;-66
2023/11/21 09:58:34;;;;;;;;;;;;;;;;;;4143057;28;19922;-66
2023/11/21 10:00:36;;;;;;;;;;;;;;;;;;4166247;28;20331;-66
2023/11/21 10:02:38;;;;;;;;;;;;;;;;;;4181241;28;19921;-65
2023/11/21 10:04:39;;;;;;;;;;;;;;;;;;4180498;28;20016;-66
2023/11/21 10:06:41;;;;;;;;;;;;;;;;;;4163303;28;19927;-65
2023/11/21 10:08:43;;;;;;;;;;;;;;;;;;4180536;28;19925;-66
2023/11/21 10:10:50;;;;;;;;;;;;;;;;;;4180933;28;19956;-66
2023/11/21 10:12:53;;;;;;;;;;;;;;;;;;4180787;28;20326;-66
2023/11/21 10:14:55;;;;;;;;;;;;;;;;;;4181078;28;19928;-66
2023/11/21 10:16:57;;;;;;;;;;;;;;;;;;4180985;28;19920;-65
2023/11/21 10:18:58;;;;;;;;;;;;;;;;;;4180800;28;19921;-65
2023/11/21 10:21:09;;;;;;;;;;;;;;;;;;4180706;28;19953;-66
2023/11/21 10:23:11;;;;;;;;;;;;;;;;;;4180520;28;19927;-66
2023/11/21 10:25:18;;;;;;;;;;;;;;;;;;4180794;28;20356;-66
2023/11/21 10:27:19;;;;;;;;;;;;;;;;;;4177712;28;19925;-66
2023/11/21 10:29:24;;;;;;;;;;;;;;;;;;4164308;28;19921;-66
2023/11/21 10:31:25;;;;;;;;;;;;;;;;;;4163909;28;19943;-65
2023/11/21 10:33:27;;;;;;;;;;;;;;;;;;4163931;28;19921;-65
2023/11/21 10:35:28;;;;;;;;;;;;;;;;;;4164295;28;19921;-66
2023/11/21 10:37:30;;;;;;;;;;;;;;;;;;4164054;28;19925;-65
2023/11/21 10:39:31;;;;;;;;;;;;;;;;;;4164289;28;20017;-65
2023/11/21 10:41:33;;;;;;;;;;;;;;;;;;4164191;28;20373;-66
2023/11/21 10:43:34;;;;;;;;;;;;;;;;;;4164058;28;20463;-66
2023/11/21 10:45:37;;;;;;;;;;;;;;;;;;4164211;28;20230;-66
2023/11/21 10:47:38;;;;;;;;;;;;;;;;;;4164045;28;20380;-66
2023/11/21 10:49:40;;;;;;;;;;;;;;;;;;4161810;28;20007;-66
2023/11/21 10:51:43;;;;;;;;;;;;;;;;;;4164057;28;20341;-66
2023/11/21 10:53:45;;;;;;;;;;;;;;;;;;4148463;28;19980;-66
2023/11/21 10:55:48;;;;;;;;;;;;;;;;;;4163496;28;20408;-65
2023/11/21 10:57:50;;;;;;;;;;;;;;;;;;4161885;28;20370;-66
2023/11/21 10:59:52;;;;;;;;;;;;;;;;;;4160066;28;19928;-65
2023/11/21 11:01:53;;;;;;;;;;;;;;;;;;4164651;28;20307;-65
2023/11/21 11:03:55;;;;;;;;;;;;;;;;;;4163290;28;19925;-66
2023/11/21 11:05:56;;;;;;;;;;;;;;;;;;4161362;28;19928;-65
2023/11/21 11:08:01;;;;;;;;;;;;;;;;;;4160209;28;19925;-65
2023/11/21 11:10:04;;;;;;;;;;;;;;;;;;4175530;28;20289;-65
2023/11/21 11:12:06;;;;;;;;;;;;;;;;;;4166421;28;19925;-65
2023/11/21 11:14:07;;;;;;;;;;;;;;;;;;4164705;28;19921;-64
2023/11/21 11:16:10;;;;;;;;;;;;;;;;;;4164536;28;20012;-64
2023/11/21 11:18:12;;;;;;;;;;;;;;;;;;4165857;28;19928;-64
2023/11/21 11:20:16;;;;;;;;;;;;;;;;;;4164893;28;20028;-65
2023/11/21 11:22:18;;;;;;;;;;;;;;;;;;4164273;28;20018;-65
2023/11/21 11:24:19;;;;;;;;;;;;;;;;;;4165610;28;20016;-64
2023/11/21 11:26:21;;;;;;;;;;;;;;;;;;4148934;28;19936;-65
2023/11/21 11:28:23;;;;;;;;;;;;;;;;;;4164564;28;19928;-64
2023/11/21 11:30:24;;;;;;;;;;;;;;;;;;4163395;28;19924;-64
2023/11/21 11:32:26;;;;;;;;;;;;;;;;;;4161542;28;19922;-65
2023/11/21 11:34:27;;;;;;;;;;;;;;;;;;4165916;28;19937;-64
2023/11/21 11:36:29;;;;;;;;;;;;;;;;;;4166181;28;19921;-64
2023/11/21 11:38:31;;;;;;;;;;;;;;;;;;4165762;28;19936;-64
2023/11/21 11:40:32;;;;;;;;;;;;;;;;;;4149901;28;19921;-64
2023/11/21 11:42:35;;;;;;;;;;;;;;;;;;4158459;28;19927;-64
2023/11/21 11:44:37;;;;;;;;;;;;;;;;;;4165155;28;19952;-64
2023/11/21 11:46:39;;;;;;;;;;;;;;;;;;4170252;28;19925;-64
2023/11/21 11:48:41;;;;;;;;;;;;;;;;;;4154616;28;19974;-65
2023/11/21 11:50:43;;;;;;;;;;;;;;;;;;4161766;28;20017;-64
2023/11/21 11:52:44;;;;;;;;;;;;;;;;;;4162517;28;19937;-64
2023/11/21 11:54:46;;;;;;;;;;;;;;;;;;4165121;28;20411;-64
2023/11/21 11:56:49;;;;;;;;;;;;;;;;;;4162132;28;19921;-64
2023/11/21 11:58:50;;;;;;;;;;;;;;;;;;4164881;28;19963;-64
2023/11/21 12:00:53;;;;;;;;;;;;;;;;;;4169545;28;20364;-65
2023/11/21 12:02:56;;;;;;;;;;;;;;;;;;4172967;28;19929;-65
2023/11/21 12:04:58;;;;;;;;;;;;;;;;;;4165488;28;19925;-65
2023/11/21 12:07:00;;;;;;;;;;;;;;;;;;4165605;28;20412;-65
2023/11/21 12:09:04;;;;;;;;;;;;;;;;;;4159916;28;19975;-65
2023/11/21 12:11:06;;;;;;;;;;;;;;;;;;4149143;28;19928;-65
2023/11/21 12:13:08;;;;;;;;;;;;;;;;;;4149497;28;19922;-66
2023/11/21 12:15:09;;;;;;;;;;;;;;;;;;4149094;28;20336;-66
2023/11/21 12:17:11;;;;;;;;;;;;;;;;;;4149140;28;19925;-66
2023/11/21 12:19:12;;;;;;;;;;;;;;;;;;4131533;28;19928;-66
2023/11/21 12:21:14;;;;;;;;;;;;;;;;;;4163499;28;19920;-66
2023/11/21 12:23:16;;;;;;;;;;;;;;;;;;4165516;28;19986;-66
2023/11/21 12:25:21;;;;;;;;;;;;;;;;;;4164153;28;20292;-66
2023/11/21 12:27:23;;;;;;;;;;;;;;;;;;4147979;28;19925;-65
2023/11/21 12:29:24;;;;;;;;;;;;;;;;;;4147771;28;19944;-65
2023/11/21 12:31:26;;;;;;;;;;;;;;;;;;4159168;28;19929;-66
2023/11/21 12:33:29;;;;;;;;;;;;;;;;;;4163399;28;19927;-65
2023/11/21 12:35:30;;;;;;;;;;;;;;;;;;4165419;28;19951;-65
2023/11/21 12:37:32;;;;;;;;;;;;;;;;;;4165180;28;19928;-65
2023/11/21 12:39:33;;;;;;;;;;;;;;;;;;4165426;28;19921;-65
2023/11/21 12:41:35;;;;;;;;;;;;;;;;;;4164066;28;20395;-65
2023/11/21 12:43:38;;;;;;;;;;;;;;;;;;4170446;28;19967;-67
2023/11/21 12:45:40;;;;;;;;;;;;;;;;;;4150023;28;20277;-67
2023/11/21 12:47:41;;;;;;;;;;;;;;;;;;4154499;28;20362;-67
2023/11/21 12:49:44;;;;;;;;;;;;;;;;;;4163769;28;19921;-67
2023/11/21 12:51:46;;;;;;;;;;;;;;;;;;4151364;28;19925;-67
2023/11/21 12:53:48;;;;;;;;;;;;;;;;;;4161103;28;19935;-67
2023/11/21 12:55:51;;;;;;;;;;;;;;;;;;4165100;28;19921;-67
2023/11/21 12:57:54;;;;;;;;;;;;;;;;;;4165509;28;20016;-67
2023/11/21 12:59:56;;;;;;;;;;;;;;;;;;4165089;28;19959;-67
2023/11/21 13:01:59;;;;;;;;;;;;;;;;;;4177851;28;19931;-67
2023/11/21 13:04:02;;;;;;;;;;;;;;;;;;4180958;28;19928;-67
2023/11/21 13:06:04;;;;;;;;;;;;;;;;;;4181217;28;19921;-67
2023/11/21 13:08:12;;;;;;;;;;;;;;;;;;4175743;28;20312;-67
2023/11/21 13:10:14;;;;;;;;;;;;;;;;;;4181393;28;20365;-67
2023/11/21 13:12:18;;;;;;;;;;;;;;;;;;4162764;28;19932;-67
2023/11/21 13:14:19;;;;;;;;;;;;;;;;;;4181078;28;20003;-67
2023/11/21 13:16:21;;;;;;;;;;;;;;;;;;4175781;28;19931;-67
2023/11/21 13:18:23;;;;;;;;;;;;;;;;;;4164860;28;19927;-67
2023/11/21 13:20:24;;;;;;;;;;;;;;;;;;4146801;28;19928;-68
2023/11/21 13:22:27;;;;;;;;;;;;;;;;;;4164715;28;19992;-67
2023/11/21 13:24:28;;;;;;;;;;;;;;;;;;4158527;28;19925;-65
2023/11/21 13:26:30;;;;;;;;;;;;;;;;;;4163033;28;20351;-64
2023/11/21 13:28:32;;;;;;;;;;;;;;;;;;4164785;28;20319;-65
2023/11/21 13:30:34;;;;;;;;;;;;;;;;;;4164818;28;19943;-65
2023/11/21 13:32:36;;;;;;;;;;;;;;;;;;4164374;28;19931;-66
2023/11/21 13:34:38;;;;;;;;;;;;;;;;;;4158549;28;19921;-68
2023/11/21 13:36:42;;;;;;;;;;;;;;;;;;4161471;28;19928;-67
2023/11/21 13:38:45;;;;;;;;;;;;;;;;;;4164703;28;19971;-68
2023/11/21 13:40:48;;;;;;;;;;;;;;;;;;4158630;28;19968;-68
2023/11/21 13:42:53;;;;;;;;;;;;;;;;;;4158860;28;19920;-67
2023/11/21 13:44:54;;;;;;;;;;;;;;;;;;4180806;28;19967;-62
2023/11/21 13:46:58;;;;;;;;;;;;;;;;;;4158658;28;19925;-63
2023/11/21 13:49:00;;;;;;;;;;;;;;;;;;4164446;28;19921;-63
2023/11/21 13:51:12;;;;;;;;;;;;;;;;;;4164523;28;19921;-63
2023/11/21 13:53:23;;;;;;;;;;;;;;;;;;4158558;28;19921;-63
2023/11/21 13:55:27;;;;;;;;;;;;;;;;;;4148087;28;19932;-63
2023/11/21 13:57:28;;;;;;;;;;;;;;;;;;4156025;28;19921;-63